Burneyville, OK

3:02 AM CDT on July 24, 2014 (GMT -0500)
Ardmore Downtown (K1F0) Elev 843 ft | 34.15 °N, 97.12 °W | Change Station
Active Advisory: Heat Advisory

Current weather conditions updated 7 minutes ago

Clear
Clear
72 °F
Feels Like 72 °F
N
0
Wind Variable Wind from North

Today is forecast to be Warmer than yesterday.

Today
High -- | Low -- °F
--% Chance of Precip.
Yesterday
High -- | Low -- °F
Precip. -- in
6:35 AM 8:35 PM
Waning Crescent, 6% visible
Pressure 30.03 in
Visibility 10.0 miles
Clouds Clear
Dew Point 68 °F
Humidity 88%
Rainfall 0.00 in
Snow Depth Not available.
UV 0 out of 12
Pollen 4.10 out of 12
Air Quality Not available.
Flu Activity Not available.
METAR K1F0 240755Z AUTO 00000KT 10SM CLR 22/20 A3003 RMK AO2

More Conditions Fewer Conditions

Pressure 30.03 in
Visibility 10.0 miles
Clouds Clear
Dew Point 68 °F
Humidity 88%
Rainfall 0.00 in
Snow Depth Not available.
UV 0 out of 12
Pollen 4.10 out of 12
Air Quality Not available.
Flu Activity Not available.
METAR K1F0 240755Z AUTO 00000KT 10SM CLR 22/20 A3003 RMK AO2

More Conditions Fewer Conditions

10-Day Weather Forecast

Almanac

Astronomy

Jul. 24, 2014 Rise Set
Actual Time 6:35 AM CDT 8:35 PM CDT
Civil Twilight 6:07 AM CDT 9:03 PM CDT
Nautical Twilight 5:33 AM CDT 9:37 PM CDT
Astronomical Twilight 4:57 AM CDT 10:13 PM CDT
Moon 4:43 AM CDT 6:53 PM CDT
Length of Visible Light 14h 56m
Length of Day
14h 00m
Tomorrow will be 1m 23s shorter.
Waning Crescent, 6% of the Moon is Illuminated
Today
Waning Crescent
Jul 26
New
Aug 3
First Quarter
Aug 10
Full
Aug 17
Last Quarter

Today's Extremes

State Highs State Lows

Community

WunderPhotos

Upload Photos

1,736,950 photos uploaded!

Nearby

Snow Depth

Station Depth Elevation
No new snow has been reported.

Earthquake Activity

City Distance Mag. Time & Date
Spencer, Oklahoma 115 miles 2.7 4:56 PM CDT
2014-07-18
Guthrie, Oklahoma 134 miles 2.9 8:59 PM CDT
2014-07-17
Minimum magnitude displayed is 2.5.

Coastal Water Temperatures

Place Temperature
No Stations Reporting

Nearby Weather Stations

Station Location Temp. Heat Index Dew Point Humidity Wind Precip. Elev Updated Type
Bulcher, Muenster, TX 73.4 °F 72 °F 69 °F 87% West  at  0.6 mph 0.00 in / hr 850 ft 3:02 AM CDT Rapid Fire
Carter County Dist 3, Lone Grove, OK 72.7 °F 71 °F 69 °F 89% NW  at  3.0 mph 0.00 in / hr 927 ft 3:02 AM CDT Normal
Ardmore Weather Live, Ardmore, Ok 70.7 °F - 68 °F 91% East  at  0.3 mph 0.00 in / hr 810 ft 3:02 AM CDT Rapid Fire
Grady/Oscar, Grady, OK 74.1 °F 74 °F 69 °F 85% NNW  at  2.9 mph 0.00 in / hr 896 ft 2:51 AM CDT Rapid Fire
Carter County Dist 2, Healdton, OK 72.6 °F 70 °F 70 °F 90% ENE  at  0.0 mph 0.00 in / hr 933 ft 3:02 AM CDT Normal

Show More Stations Show Fewer Stations